Time;durP1;ratioP1;P1;durP2;ratioP2;P2;SDS_P1;SDS_P2;PMS_P1;PMS_P2;Temp;Humidity;BMP_temperature;BMP_pressure;BME280_temperature;BME280_humidity;BME280_pressure;Samples;Min_cycle;Max_cycle;Signal;HPM_P1;HPM_P2
2024/03/24 00:00:02;;;;;;;;;;;;;;;15.50;48.19;100174.56;5035894;28;1078;-50
2024/03/24 00:02:37;;;;;;;;;;;;;;;16.99;44.82;100175.13;5035779;28;870;-47
2024/03/24 00:05:03;;;;;;;;;;;;;;;17.21;44.04;100168.03;5036456;28;1983;-51
2024/03/24 00:07:29;;;;;;;;;;;;;;;16.24;46.18;100167.91;5036430;28;1176;-51
2024/03/24 00:09:55;;;;;;;;;;;;;;;15.85;47.15;100164.81;5034389;28;2321;-51
2024/03/24 00:12:20;;;;;;;;;;;;;;;15.57;47.81;100156.38;5036013;28;988;-50
2024/03/24 00:14:46;;;;;;;;;;;;;;;15.41;48.49;100146.97;5036107;28;1089;-51
2024/03/24 00:17:12;;;;;;;;;;;;;;;15.41;48.52;100129.25;5036138;28;1039;-49
2024/03/24 00:19:37;;;;;;;;;;;;;;;16.91;45.17;100144.84;5036213;28;1071;-48
2024/03/24 00:22:03;;;;;;;;;;;;;;;17.55;43.43;100131.53;5035751;28;1110;-47
2024/03/24 00:24:29;;;;;;;;;;;;;;;16.56;45.49;100138.84;5036093;28;1079;-52
2024/03/24 00:26:55;;;;;;;;;;;;;;;16.07;46.47;100131.28;5035779;28;1910;-51
2024/03/24 00:29:21;;;;;;;;;;;;;;;15.68;47.43;100127.22;5035689;28;1025;-55
2024/03/24 00:31:46;;;;;;;;;;;;;;;15.54;47.89;100128.31;5018042;28;1059;-51
2024/03/24 00:34:12;;;;;;;;;;;;;;;15.35;48.16;100119.13;5051265;28;1036;-49
2024/03/24 00:36:37;;;;;;;;;;;;;;;15.53;48.28;100124.81;5035927;28;1147;-48
2024/03/24 00:39:06;;;;;;;;;;;;;;;16.99;44.78;100127.28;5026596;28;2038;-51
2024/03/24 00:41:32;;;;;;;;;;;;;;;17.06;44.39;100124.94;5035776;28;1094;-49
2024/03/24 00:43:57;;;;;;;;;;;;;;;16.12;46.40;100122.00;5038249;28;1101;-50
2024/03/24 00:46:23;;;;;;;;;;;;;;;15.86;47.21;100121.41;5039451;28;1910;-51
2024/03/24 00:48:48;;;;;;;;;;;;;;;15.56;47.72;100115.78;5039962;28;1075;-50
2024/03/24 00:51:14;;;;;;;;;;;;;;;15.35;48.43;100113.84;5039470;28;862;-53
2024/03/24 00:53:40;;;;;;;;;;;;;;;15.25;48.24;100104.91;5039246;28;1024;-48
2024/03/24 00:56:06;;;;;;;;;;;;;;;16.34;46.64;100104.31;5039610;28;1031;-47
2024/03/24 00:58:31;;;;;;;;;;;;;;;17.40;43.92;100099.94;5039071;28;988;-49
2024/03/24 01:00:57;;;;;;;;;;;;;;;16.59;45.38;100101.41;5039674;28;1040;-50
2024/03/24 01:03:22;;;;;;;;;;;;;;;16.03;46.65;100090.91;5039191;28;883;-51
2024/03/24 01:05:49;;;;;;;;;;;;;;;15.71;47.44;100089.00;5039575;28;1956;-48
2024/03/24 01:08:15;;;;;;;;;;;;;;;15.45;48.03;100087.44;5036594;28;2034;-51
2024/03/24 01:10:40;;;;;;;;;;;;;;;15.27;48.76;100080.00;5039426;28;1191;-50
2024/03/24 01:13:06;;;;;;;;;;;;;;;15.38;48.85;100075.66;5039352;28;1089;-51
2024/03/24 01:15:31;;;;;;;;;;;;;;;16.87;45.24;100076.03;5031614;28;860;-49
2024/03/24 01:17:57;;;;;;;;;;;;;;;17.21;43.87;100071.47;5033705;28;1117;-51
2024/03/24 01:20:23;;;;;;;;;;;;;;;16.34;45.85;100068.94;5039120;28;997;-50
2024/03/24 01:22:48;;;;;;;;;;;;;;;15.93;47.07;100069.56;5038771;28;1135;-50
2024/03/24 01:25:14;;;;;;;;;;;;;;;15.59;47.70;100070.47;5039283;28;1971;-52
2024/03/24 01:27:39;;;;;;;;;;;;;;;15.44;47.97;100059.28;5039060;28;905;-52
2024/03/24 01:30:05;;;;;;;;;;;;;;;15.18;48.82;100064.81;5039261;28;1039;-47
2024/03/24 01:32:31;;;;;;;;;;;;;;;16.32;46.41;100065.56;5038954;28;1124;-53
2024/03/24 01:34:56;;;;;;;;;;;;;;;17.37;43.83;100055.88;5038969;28;993;-51
2024/03/24 01:37:22;;;;;;;;;;;;;;;16.83;44.83;100057.84;5037495;28;1047;-54
2024/03/24 01:39:48;;;;;;;;;;;;;;;16.17;46.29;100060.56;5054116;28;1936;-52
2024/03/24 01:42:14;;;;;;;;;;;;;;;15.87;47.33;100059.44;5057870;28;873;-53
2024/03/24 01:44:40;;;;;;;;;;;;;;;15.53;47.86;100047.09;5053666;28;1707;-55
2024/03/24 01:47:05;;;;;;;;;;;;;;;15.35;48.30;100044.09;5056106;28;1909;-54
2024/03/24 01:49:31;;;;;;;;;;;;;;;15.30;48.63;100047.94;5051224;28;832;-53
2024/03/24 01:51:57;;;;;;;;;;;;;;;16.07;47.29;100049.03;5037502;28;854;-53
2024/03/24 01:54:23;;;;;;;;;;;;;;;17.22;44.21;100044.75;5019779;28;751;-53
2024/03/24 01:56:48;;;;;;;;;;;;;;;16.74;45.14;100052.34;5056982;28;819;-53
2024/03/24 01:59:14;;;;;;;;;;;;;;;16.08;46.67;100040.94;5057948;28;821;-52
2024/03/24 02:01:39;;;;;;;;;;;;;;;15.71;47.54;100042.13;5057698;28;813;-54
2024/03/24 02:04:08;;;;;;;;;;;;;;;15.49;48.14;100045.66;5038307;28;856;-54
2024/03/24 02:06:34;;;;;;;;;;;;;;;15.25;48.58;100036.00;5020216;28;1989;-55
2024/03/24 02:09:00;;;;;;;;;;;;;;;15.24;48.92;100032.53;5037467;28;806;-55
2024/03/24 02:11:26;;;;;;;;;;;;;;;16.72;45.69;100026.88;5037827;28;786;-53
2024/03/24 02:13:57;;;;;;;;;;;;;;;17.52;43.65;100028.91;5037265;28;861;-52
2024/03/24 02:16:23;;;;;;;;;;;;;;;16.51;45.39;100025.06;5037295;28;809;-52
2024/03/24 02:18:48;;;;;;;;;;;;;;;15.96;46.92;100026.88;5037489;28;881;-52
2024/03/24 02:21:14;;;;;;;;;;;;;;;15.65;47.48;100022.25;5037345;28;869;-53
2024/03/24 02:23:40;;;;;;;;;;;;;;;15.40;47.92;100026.00;5042904;28;854;-51
2024/03/24 02:26:05;;;;;;;;;;;;;;;15.35;48.23;100031.69;5056280;28;1914;-51
2024/03/24 02:28:31;;;;;;;;;;;;;;;16.19;46.77;100028.59;5037627;28;830;-51
2024/03/24 02:30:56;;;;;;;;;;;;;;;17.32;43.92;100026.19;5037420;28;797;-53
2024/03/24 02:33:22;;;;;;;;;;;;;;;16.61;45.08;100023.34;5037632;28;917;-53
2024/03/24 02:35:49;;;;;;;;;;;;;;;15.98;46.87;100032.91;4991271;28;1325433;-52
2024/03/24 02:38:14;;;;;;;;;;;;;;;15.73;47.42;100026.91;5020384;28;912;-54
2024/03/24 02:40:40;;;;;;;;;;;;;;;15.47;48.23;100026.38;5038547;28;834;-53
2024/03/24 02:43:06;;;;;;;;;;;;;;;15.26;48.41;100016.53;5038452;28;770;-54
2024/03/24 02:45:31;;;;;;;;;;;;;;;15.20;48.69;100030.25;5020491;28;1910;-52
2024/03/24 02:47:57;;;;;;;;;;;;;;;16.56;45.58;100014.91;5038159;28;874;-53
2024/03/24 02:50:22;;;;;;;;;;;;;;;17.53;43.53;100019.97;5037949;28;872;-52
2024/03/24 02:52:48;;;;;;;;;;;;;;;16.54;45.52;100011.53;5038562;28;806;-53
2024/03/24 02:55:14;;;;;;;;;;;;;;;15.94;47.03;100017.34;5037928;28;798;-51
2024/03/24 02:57:39;;;;;;;;;;;;;;;15.64;47.40;100009.97;5038051;28;862;-52
2024/03/24 03:00:08;;;;;;;;;;;;;;;15.43;48.04;100010.72;5038194;28;932;-52
2024/03/24 03:02:34;;;;;;;;;;;;;;;15.22;48.39;100005.31;5037622;28;861;-54
2024/03/24 03:05:00;;;;;;;;;;;;;;;15.58;47.92;100006.97;5037631;28;1976;-53
2024/03/24 03:07:26;;;;;;;;;;;;;;;17.03;44.67;100000.34;5037515;28;813;-53
2024/03/24 03:09:52;;;;;;;;;;;;;;;16.99;44.45;100004.22;5038102;28;812;-51
2024/03/24 03:12:18;;;;;;;;;;;;;;;16.17;46.26;99994.22;5037724;28;834;-53
2024/03/24 03:14:43;;;;;;;;;;;;;;;15.81;47.07;99996.28;5037611;28;893;-54
2024/03/24 03:17:09;;;;;;;;;;;;;;;15.52;47.75;99990.59;5037377;28;846;-52
2024/03/24 03:19:34;;;;;;;;;;;;;;;15.33;48.62;99993.03;5037795;28;774;-53
2024/03/24 03:22:00;;;;;;;;;;;;;;;15.26;48.83;99990.88;5037335;28;803;-52
2024/03/24 03:24:25;;;;;;;;;;;;;;;16.71;45.59;99980.03;5037984;28;853;-53
2024/03/24 03:26:51;;;;;;;;;;;;;;;17.17;44.06;99979.69;5037042;28;1898;-54
2024/03/24 03:29:16;;;;;;;;;;;;;;;16.23;46.01;99987.59;5037821;28;896;-54
2024/03/24 03:31:42;;;;;;;;;;;;;;;15.78;47.20;99987.59;5037553;28;781;-51
2024/03/24 03:34:08;;;;;;;;;;;;;;;15.49;47.75;99980.22;5037745;28;850;-53
2024/03/24 03:36:33;;;;;;;;;;;;;;;15.33;48.27;99983.25;5036841;28;1125;-53
2024/03/24 03:38:59;;;;;;;;;;;;;;;15.28;48.43;99980.97;5036940;28;873;-56
2024/03/24 03:41:24;;;;;;;;;;;;;;;16.77;45.23;99990.13;5037427;28;766;-51
2024/03/24 03:43:50;;;;;;;;;;;;;;;17.22;43.88;99980.97;5037053;28;763;-52
2024/03/24 03:46:16;;;;;;;;;;;;;;;16.20;46.09;99975.41;5036942;28;1969;-52
2024/03/24 03:48:43;;;;;;;;;;;;;;;15.80;47.27;99984.81;5037178;28;913;-54
2024/03/24 03:51:17;;;;;;;;;;;;;;;15.54;47.99;99970.09;5037168;28;826;-53
2024/03/24 03:53:48;;;;;;;;;;;;;;;15.29;48.22;99973.88;5036943;28;829;-52
2024/03/24 03:56:13;;;;;;;;;;;;;;;15.34;48.33;99977.00;5037137;28;805;-53
2024/03/24 03:58:39;;;;;;;;;;;;;;;16.83;45.04;99970.19;5036452;28;865;-51
2024/03/24 04:01:06;;;;;;;;;;;;;;;17.45;43.43;99969.28;5037145;28;806;-52
2024/03/24 04:03:32;;;;;;;;;;;;;;;16.42;45.78;99968.28;5036529;28;864;-53
2024/03/24 04:05:59;;;;;;;;;;;;;;;15.94;46.72;99965.13;5036695;28;1902;-53
2024/03/24 04:08:24;;;;;;;;;;;;;;;15.68;47.36;99962.84;5036577;28;814;-53
2024/03/24 04:10:50;;;;;;;;;;;;;;;15.38;48.30;99957.22;5036358;28;1326;-57
2024/03/24 04:13:15;;;;;;;;;;;;;;;15.38;48.19;99959.06;5036599;28;834;-57
2024/03/24 04:15:41;;;;;;;;;;;;;;;16.74;45.22;99948.75;5036293;28;916;-58
2024/03/24 04:18:06;;;;;;;;;;;;;;;17.05;44.10;99953.19;5036384;28;814;-57
2024/03/24 04:20:35;;;;;;;;;;;;;;;16.20;46.22;99953.34;5036875;28;817;-57
2024/03/24 04:23:00;;;;;;;;;;;;;;;15.77;47.21;99954.09;5036745;28;826;-56
2024/03/24 04:25:26;;;;;;;;;;;;;;;15.53;47.97;99963.09;5018957;28;1973;-57
2024/03/24 04:27:51;;;;;;;;;;;;;;;15.34;48.31;99969.06;5035996;28;1094;-55
2024/03/24 04:30:19;;;;;;;;;;;;;;;16.07;46.82;99961.47;5041191;28;1418;-54
2024/03/24 04:32:44;;;;;;;;;;;;;;;17.27;43.77;99951.31;5036766;28;853;-55
2024/03/24 04:35:10;;;;;;;;;;;;;;;16.85;44.47;99952.28;5036306;28;1277;-56
2024/03/24 04:37:35;;;;;;;;;;;;;;;16.11;46.53;99963.78;5036403;28;818;-55
2024/03/24 04:40:05;;;;;;;;;;;;;;;15.69;47.13;99947.75;5035836;28;856;-57
2024/03/24 04:42:34;;;;;;;;;;;;;;;15.47;47.92;99953.00;5034325;28;1997;-55
2024/03/24 04:45:03;;;;;;;;;;;;;;;15.33;48.12;99951.44;5037982;28;2467;-54
2024/03/24 04:47:29;;;;;;;;;;;;;;;15.23;48.52;99950.53;5035872;28;1962;-56
2024/03/24 04:49:54;;;;;;;;;;;;;;;16.73;45.30;99949.72;5036059;28;1984;-57
2024/03/24 04:52:21;;;;;;;;;;;;;;;17.58;43.14;99932.59;5036873;28;2240;-57
2024/03/24 04:54:47;;;;;;;;;;;;;;;16.58;45.47;99932.47;5021190;28;2092;-58
2024/03/24 04:57:14;;;;;;;;;;;;;;;15.96;46.89;99943.78;5039070;28;1150;-56
2024/03/24 04:59:39;;;;;;;;;;;;;;;15.74;47.23;99949.06;5036101;28;1144;-58
2024/03/24 05:02:05;;;;;;;;;;;;;;;15.51;48.01;99956.25;5038254;28;918;-59
2024/03/24 05:04:31;;;;;;;;;;;;;;;15.35;48.26;99952.19;5035495;28;1063;-57
2024/03/24 05:06:59;;;;;;;;;;;;;;;15.97;47.28;99940.16;5035854;28;1910;-59
2024/03/24 05:09:25;;;;;;;;;;;;;;;17.19;44.64;99935.22;5035705;28;1083;-57
2024/03/24 05:11:51;;;;;;;;;;;;;;;16.45;45.82;99935.34;5035996;28;1120;-58
2024/03/24 05:14:17;;;;;;;;;;;;;;;15.28;48.56;99930.63;5035838;28;984;-58
2024/03/24 05:16:42;;;;;;;;;;;;;;;15.04;48.40;99938.75;5035530;28;1072;-58
2024/03/24 05:19:08;;;;;;;;;;;;;;;14.81;47.30;99942.22;5035892;28;1044;-58
2024/03/24 05:21:34;;;;;;;;;;;;;;;16.35;47.45;99946.72;5035623;28;992;-59
2024/03/24 05:23:59;;;;;;;;;;;;;;;15.18;48.68;99949.06;5035981;28;1135;-58
2024/03/24 05:26:25;;;;;;;;;;;;;;;14.91;48.19;99955.59;5027736;28;2371;-58
2024/03/24 05:28:50;;;;;;;;;;;;;;;14.64;47.52;99946.19;5036269;28;999;-59
2024/03/24 05:31:16;;;;;;;;;;;;;;;15.23;48.50;99953.19;5021352;28;1107;-60
2024/03/24 05:33:44;;;;;;;;;;;;;;;15.42;48.48;99945.44;5039360;28;1140;-58
2024/03/24 05:36:09;;;;;;;;;;;;;;;14.91;48.33;99931.75;5038874;28;1324;-59
2024/03/24 05:38:35;;;;;;;;;;;;;;;14.68;47.64;99938.84;5039544;28;1183;-59
2024/03/24 05:41:02;;;;;;;;;;;;;;;16.46;47.15;99942.31;5038503;28;1162;-58
2024/03/24 05:43:28;;;;;;;;;;;;;;;15.38;48.38;99932.56;5039227;28;1039;-58
2024/03/24 05:45:54;;;;;;;;;;;;;;;14.95;48.44;99937.66;5038780;28;1919;-58
2024/03/24 05:48:20;;;;;;;;;;;;;;;16.34;47.48;99928.28;5039124;28;1036;-58
2024/03/24 05:50:46;;;;;;;;;;;;;;;15.76;47.77;99920.63;5038932;28;1126;-59
2024/03/24 05:53:11;;;;;;;;;;;;;;;15.13;48.46;99921.28;5038755;28;888;-59
2024/03/24 05:55:37;;;;;;;;;;;;;;;14.89;47.72;99919.63;5038150;28;2533;-60
2024/03/24 05:58:04;;;;;;;;;;;;;;;15.50;48.84;99930.69;5038863;28;1094;-58
2024/03/24 06:00:29;;;;;;;;;;;;;;;16.70;46.83;99935.88;5038656;28;1108;-56
2024/03/24 06:02:55;;;;;;;;;;;;;;;15.37;48.27;99929.06;5038732;28;1003;-55
2024/03/24 06:05:22;;;;;;;;;;;;;;;16.18;48.03;99932.25;5038333;28;1914;-59
2024/03/24 06:07:47;;;;;;;;;;;;;;;15.87;47.97;99932.13;5038884;28;1195;-57
2024/03/24 06:10:13;;;;;;;;;;;;;;;15.29;48.06;99929.69;5038512;28;1177;-59
2024/03/24 06:12:39;;;;;;;;;;;;;;;15.01;47.55;99929.25;5038395;28;1031;-59
2024/03/24 06:15:04;;;;;;;;;;;;;;;16.74;46.90;99926.66;5038777;28;1055;-60
2024/03/24 06:17:30;;;;;;;;;;;;;;;15.57;48.10;99929.22;5038542;28;837;-60
2024/03/24 06:19:56;;;;;;;;;;;;;;;15.20;47.82;99922.47;5038319;28;1207;-60
2024/03/24 06:22:21;;;;;;;;;;;;;;;16.05;47.73;99927.13;5038336;28;1075;-60
2024/03/24 06:24:47;;;;;;;;;;;;;;;15.38;48.07;99929.91;5038013;28;1059;-60
2024/03/24 06:27:12;;;;;;;;;;;;;;;16.11;48.11;99933.72;5030102;28;1902;-61
2024/03/24 06:29:38;;;;;;;;;;;;;;;16.30;47.31;99929.53;5038041;28;1016;-60
2024/03/24 06:32:04;;;;;;;;;;;;;;;15.38;48.39;99935.19;5038230;28;1020;-63
2024/03/24 06:34:29;;;;;;;;;;;;;;;15.17;47.18;99935.94;5038035;28;1020;-63
2024/03/24 06:36:55;;;;;;;;;;;;;;;16.81;46.48;99926.97;5038224;28;1056;-62
2024/03/24 06:39:21;;;;;;;;;;;;;;;15.55;48.21;99932.00;5038400;28;1079;-61
2024/03/24 06:41:49;;;;;;;;;;;;;;;15.20;47.64;99924.28;5036789;28;929;-62
2024/03/24 06:44:17;;;;;;;;;;;;;;;14.98;47.14;99924.16;5037723;28;1063;-58
2024/03/24 06:46:44;;;;;;;;;;;;;;;15.61;48.00;99924.53;5038422;28;1902;-58
2024/03/24 06:49:10;;;;;;;;;;;;;;;15.81;47.96;99927.34;5038139;28;1206;-59
2024/03/24 06:51:35;;;;;;;;;;;;;;;15.25;47.67;99925.59;5037759;28;1114;-62
2024/03/24 06:54:01;;;;;;;;;;;;;;;15.90;48.27;99926.56;5037447;28;1175;-60
2024/03/24 06:56:26;;;;;;;;;;;;;;;16.03;47.89;99929.06;5037409;28;2746;-61
2024/03/24 06:58:52;;;;;;;;;;;;;;;15.23;48.25;99930.16;5037405;28;1148;-61
2024/03/24 07:01:21;;;;;;;;;;;;;;;14.95;47.96;99924.41;5038175;28;905;-60
2024/03/24 07:03:46;;;;;;;;;;;;;;;15.26;47.85;99926.44;5037573;28;1165;-57
2024/03/24 07:06:13;;;;;;;;;;;;;;;15.93;47.94;99918.38;5037279;28;1902;-60
2024/03/24 07:08:39;;;;;;;;;;;;;;;15.30;47.92;99915.44;5037735;28;1075;-60
2024/03/24 07:11:04;;;;;;;;;;;;;;;16.71;46.89;99917.16;5037516;28;1174;-59
2024/03/24 07:13:30;;;;;;;;;;;;;;;16.20;46.63;99921.50;5037162;28;1250;-57
2024/03/24 07:15:56;;;;;;;;;;;;;;;17.87;44.22;99917.63;5020170;28;1149;-57
2024/03/24 07:18:21;;;;;;;;;;;;;;;18.08;43.25;99908.66;5037152;28;965;-57
2024/03/24 07:20:47;;;;;;;;;;;;;;;16.81;46.39;99908.38;5037518;28;1412;-57
2024/03/24 07:23:14;;;;;;;;;;;;;;;18.58;42.77;99906.72;5037308;28;1171;-56
2024/03/24 07:25:40;;;;;;;;;;;;;;;17.42;44.39;99913.69;5037421;28;1973;-56
2024/03/24 07:28:05;;;;;;;;;;;;;;;17.25;45.86;99911.59;5037120;28;1075;-58
2024/03/24 07:30:31;;;;;;;;;;;;;;;18.64;42.36;99908.78;5037195;28;942;-61
2024/03/24 07:32:57;;;;;;;;;;;;;;;17.02;45.51;99903.81;5019741;28;1087;-62
2024/03/24 07:35:22;;;;;;;;;;;;;;;17.98;44.33;99912.16;5036764;28;1071;-61
2024/03/24 07:37:48;;;;;;;;;;;;;;;17.65;44.47;99908.13;5037309;28;1053;-61
2024/03/24 07:40:13;;;;;;;;;;;;;;;16.91;46.59;99909.25;5037051;28;1140;-62
2024/03/24 07:42:42;;;;;;;;;;;;;;;18.88;42.49;99915.44;5036329;28;941;-60
2024/03/24 07:45:08;;;;;;;;;;;;;;;14.99;52.04;99917.06;5036514;28;1975;-61
2024/03/24 07:47:35;;;;;;;;;;;;;;;18.26;44.15;99908.78;5036981;28;1031;-60
2024/03/24 07:50:02;;;;;;;;;;;;;;;16.18;47.93;99915.47;5037581;28;1104;-58
2024/03/24 07:52:29;;;;;;;;;;;;;;;17.01;47.59;99912.78;5036811;28;1133;-57
2024/03/24 07:54:55;;;;;;;;;;;;;;;18.88;42.83;99903.91;5036149;28;926;-56
2024/03/24 07:57:21;;;;;;;;;;;;;;;14.83;52.44;99898.94;5036814;28;1139;-57
2024/03/24 07:59:46;;;;;;;;;;;;;;;18.12;44.71;99896.72;5036686;28;1147;-57
2024/03/24 08:02:12;;;;;;;;;;;;;;;17.85;44.32;99893.00;5036706;28;1023;-57
2024/03/24 08:04:37;;;;;;;;;;;;;;;14.85;52.64;99887.22;5036453;28;1098;-56
2024/03/24 08:07:03;;;;;;;;;;;;;;;18.29;44.30;99892.53;5035764;28;1989;-55
2024/03/24 08:09:29;;;;;;;;;;;;;;;17.18;45.72;99891.03;5036591;28;1068;-57
2024/03/24 08:11:54;;;;;;;;;;;;;;;16.50;46.75;99880.00;5036146;28;1122;-59
2024/03/24 08:14:20;;;;;;;;;;;;;;;16.31;46.55;99878.97;5036656;28;1028;-57
2024/03/24 08:16:45;;;;;;;;;;;;;;;16.04;46.25;99883.00;5035820;28;1052;-58
2024/03/24 08:19:11;;;;;;;;;;;;;;;15.87;46.07;99868.47;5036402;28;1067;-61
2024/03/24 08:21:37;;;;;;;;;;;;;;;15.86;45.93;99870.28;5037035;28;1235;-50
2024/03/24 08:24:03;;;;;;;;;;;;;;;15.71;45.78;99883.03;5036533;28;1063;-58
2024/03/24 08:26:28;;;;;;;;;;;;;;;15.63;45.79;99875.69;5029733;28;1891;-58
2024/03/24 08:28:54;;;;;;;;;;;;;;;15.61;45.56;99863.53;5024936;28;1369;-60
2024/03/24 08:31:20;;;;;;;;;;;;;;;15.38;45.90;99858.34;5036223;28;1103;-58
2024/03/24 08:33:45;;;;;;;;;;;;;;;15.34;45.19;99860.41;5035860;28;1063;-59
2024/03/24 08:36:11;;;;;;;;;;;;;;;15.21;45.52;99855.28;5036044;28;1036;-59
2024/03/24 08:38:36;;;;;;;;;;;;;;;15.17;45.40;99859.97;5035807;28;1079;-60
2024/03/24 08:41:02;;;;;;;;;;;;;;;15.11;45.04;99849.88;5018468;28;1040;-60
2024/03/24 08:43:28;;;;;;;;;;;;;;;14.96;45.23;99853.75;5036166;28;1139;-62
2024/03/24 08:45:53;;;;;;;;;;;;;;;14.96;44.84;99841.38;5036441;28;1981;-59
2024/03/24 08:48:19;;;;;;;;;;;;;;;16.07;45.84;99837.63;5026935;28;1120;-59
2024/03/24 08:50:44;;;;;;;;;;;;;;;15.57;46.94;99847.06;5034587;28;1156;-62
2024/03/24 08:53:11;;;;;;;;;;;;;;;15.32;46.52;99843.78;5036126;28;1207;-57
2024/03/24 08:55:36;;;;;;;;;;;;;;;15.06;46.29;99844.13;5036054;28;1143;-58
2024/03/24 08:58:02;;;;;;;;;;;;;;;14.93;45.85;99839.78;5035750;28;1118;-58
2024/03/24 09:00:27;;;;;;;;;;;;;;;14.88;45.53;99843.78;5036254;28;1039;-58
2024/03/24 09:02:53;;;;;;;;;;;;;;;14.87;45.40;99834.16;5036103;28;1052;-58
2024/03/24 09:05:19;;;;;;;;;;;;;;;14.65;45.56;99828.75;5039151;28;1983;-58
2024/03/24 09:07:44;;;;;;;;;;;;;;;14.67;45.44;99834.75;5039558;28;1138;-58
2024/03/24 09:10:10;;;;;;;;;;;;;;;16.01;45.72;99830.19;5039681;28;1028;-59
2024/03/24 09:12:36;;;;;;;;;;;;;;;15.52;46.67;99828.88;5032725;28;1115;-57
2024/03/24 09:15:02;;;;;;;;;;;;;;;15.12;46.77;99835.66;5028260;28;1048;-59
2024/03/24 09:17:27;;;;;;;;;;;;;;;14.97;46.46;99821.00;5039070;28;1055;-60
2024/03/24 09:19:53;;;;;;;;;;;;;;;14.83;46.25;99822.97;5039398;28;1071;-60
2024/03/24 09:22:19;;;;;;;;;;;;;;;14.65;46.00;99815.50;5039675;28;1052;-60
2024/03/24 09:24:45;;;;;;;;;;;;;;;14.60;45.78;99808.91;5039476;28;1138;-57
2024/03/24 09:27:10;;;;;;;;;;;;;;;16.32;45.85;99798.34;5039538;28;1902;-56
2024/03/24 09:29:36;;;;;;;;;;;;;;;15.31;47.30;99797.06;5039316;28;1199;-57
2024/03/24 09:32:02;;;;;;;;;;;;;;;15.04;46.97;99796.56;5039617;28;1151;-56
2024/03/24 09:34:27;;;;;;;;;;;;;;;14.80;46.92;99797.59;5039746;28;1037;-57
2024/03/24 09:36:53;;;;;;;;;;;;;;;14.83;46.18;99809.72;5039591;28;1121;-56
2024/03/24 09:39:19;;;;;;;;;;;;;;;16.52;46.14;99793.97;5038532;28;1136;-59
2024/03/24 09:41:44;;;;;;;;;;;;;;;15.82;47.11;99801.72;5041788;28;908;-55
2024/03/24 09:44:11;;;;;;;;;;;;;;;15.17;47.97;99793.75;5039044;28;1111;-56
2024/03/24 09:46:38;;;;;;;;;;;;;;;15.10;47.32;99795.19;5039240;28;1906;-56
2024/03/24 09:49:03;;;;;;;;;;;;;;;15.10;46.28;99789.91;5038162;28;1055;-56
2024/03/24 09:51:29;;;;;;;;;;;;;;;14.87;46.28;99781.19;5030011;28;1072;-56
2024/03/24 09:53:54;;;;;;;;;;;;;;;14.86;45.68;99779.53;5054222;28;1111;-53
2024/03/24 09:56:20;;;;;;;;;;;;;;;15.46;46.89;99775.53;5039043;28;1040;-55
2024/03/24 09:58:46;;;;;;;;;;;;;;;16.38;46.14;99787.19;5038542;28;1131;-55
2024/03/24 10:01:11;;;;;;;;;;;;;;;15.36;47.82;99778.13;5039021;28;1194;-55
2024/03/24 10:03:40;;;;;;;;;;;;;;;15.09;47.52;99776.78;5021491;28;1163;-55
2024/03/24 10:06:05;;;;;;;;;;;;;;;14.92;47.03;99771.91;5020987;28;1982;-56
2024/03/24 10:08:32;;;;;;;;;;;;;;;14.85;46.21;99767.25;5021119;28;1168;-56
2024/03/24 10:11:18;;;;;;;;;;;;;;;14.77;46.05;99758.09;5039018;28;1116;-55
2024/03/24 10:13:43;;;;;;;;;;;;;;;15.13;46.95;99752.56;5038278;28;1808;-56
2024/03/24 10:16:15;;;;;;;;;;;;;;;16.43;46.21;99754.13;5038299;28;1048;-56
2024/03/24 10:18:41;;;;;;;;;;;;;;;15.63;47.09;99743.13;5030712;28;1148;-49
2024/03/24 10:21:11;;;;;;;;;;;;;;;15.23;47.54;99754.47;5038126;28;1072;-56
2024/03/24 10:23:37;;;;;;;;;;;;;;;14.98;47.01;99748.56;5020694;28;1216;-56
2024/03/24 10:26:02;;;;;;;;;;;;;;;14.86;46.03;99750.41;5053984;28;1956;-55
2024/03/24 10:28:28;;;;;;;;;;;;;;;14.84;45.81;99745.22;5038739;28;1047;-57
2024/03/24 10:31:03;;;;;;;;;;;;;;;14.73;45.51;99743.41;5037591;28;1107;-57
2024/03/24 10:33:30;;;;;;;;;;;;;;;14.82;46.31;99741.84;5038425;28;1123;-56
2024/03/24 10:35:57;;;;;;;;;;;;;;;16.75;46.03;99740.59;5038287;28;1222;-56
2024/03/24 10:38:23;;;;;;;;;;;;;;;15.49;47.57;99724.91;5038205;28;1134;-56
2024/03/24 10:40:50;;;;;;;;;;;;;;;15.18;47.13;99725.72;5037981;28;1163;-56
2024/03/24 10:43:15;;;;;;;;;;;;;;;14.96;46.74;99719.53;5052626;28;1078;-56
2024/03/24 10:45:41;;;;;;;;;;;;;;;14.85;46.74;99719.59;5053540;28;1979;-52
2024/03/24 10:48:08;;;;;;;;;;;;;;;14.73;46.17;99709.00;5038147;28;1209;-54
2024/03/24 10:50:35;;;;;;;;;;;;;;;14.60;46.12;99703.88;5020736;28;1218;-54
2024/03/24 10:53:02;;;;;;;;;;;;;;;14.64;45.94;99694.72;5038102;28;1024;-56
2024/03/24 10:55:28;;;;;;;;;;;;;;;16.48;46.50;99702.28;5037264;28;1234;-54
2024/03/24 10:57:53;;;;;;;;;;;;;;;15.30;47.45;99692.03;5037934;28;1114;-57
2024/03/24 11:00:27;;;;;;;;;;;;;;;14.96;47.27;99689.56;5019897;28;1156;-56
2024/03/24 11:02:53;;;;;;;;;;;;;;;16.11;46.67;99695.78;5037896;28;1059;-55
2024/03/24 11:05:18;;;;;;;;;;;;;;;15.21;47.72;99692.81;5019207;28;1904;-56
2024/03/24 11:07:44;;;;;;;;;;;;;;;15.09;47.08;99698.16;5037558;28;885;-57
2024/03/24 11:10:10;;;;;;;;;;;;;;;14.96;46.88;99689.56;5037596;28;1124;-55
2024/03/24 11:12:35;;;;;;;;;;;;;;;14.83;46.18;99681.81;5036934;28;1127;-56
2024/03/24 11:15:01;;;;;;;;;;;;;;;14.71;46.05;99673.03;5038151;28;1047;-56
2024/03/24 11:17:27;;;;;;;;;;;;;;;16.06;47.03;99674.13;5037580;28;1151;-56
2024/03/24 11:19:53;;;;;;;;;;;;;;;15.97;47.08;99670.44;5037352;28;1087;-56
2024/03/24 11:22:33;;;;;;;;;;;;;;;15.29;48.09;99658.56;5036986;28;1032;-55
2024/03/24 11:25:01;;;;;;;;;;;;;;;14.95;47.65;99656.94;5019786;28;1036;-55
2024/03/24 11:27:28;;;;;;;;;;;;;;;14.94;46.80;99657.91;5036700;28;1910;-56
2024/03/24 11:29:54;;;;;;;;;;;;;;;14.85;46.33;99650.75;5037163;28;1222;-57
2024/03/24 11:32:20;;;;;;;;;;;;;;;14.72;46.27;99649.09;5036963;28;1035;-53
2024/03/24 11:34:52;;;;;;;;;;;;;;;14.89;46.69;99663.59;5037205;28;1028;-58
2024/03/24 11:37:17;;;;;;;;;;;;;;;15.86;46.79;99654.63;5037335;28;1051;-56
2024/03/24 11:39:43;;;;;;;;;;;;;;;15.06;47.70;99654.22;5036882;28;1067;-54
2024/03/24 11:42:11;;;;;;;;;;;;;;;14.83;47.02;99632.31;5036908;28;1254;-56
2024/03/24 11:44:37;;;;;;;;;;;;;;;14.73;46.64;99634.88;5036920;28;862;-57
2024/03/24 11:47:03;;;;;;;;;;;;;;;16.31;46.49;99636.59;5036495;28;1910;-56
2024/03/24 11:49:37;;;;;;;;;;;;;;;15.95;47.31;99627.28;5036538;28;1062;-58
2024/03/24 11:52:03;;;;;;;;;;;;;;;15.30;47.78;99618.69;5036369;28;1075;-56
2024/03/24 11:54:29;;;;;;;;;;;;;;;15.10;47.38;99623.03;5037193;28;1067;-56
2024/03/24 11:56:56;;;;;;;;;;;;;;;15.95;47.64;99619.31;5037028;28;1126;-55
2024/03/24 11:59:21;;;;;;;;;;;;;;;15.83;47.14;99615.94;5018901;28;1064;-55
2024/03/24 12:01:47;;;;;;;;;;;;;;;15.88;48.04;99605.75;5036748;28;1055;-56
2024/03/24 12:04:12;;;;;;;;;;;;;;;17.33;45.79;99604.38;5036060;28;1099;-58
2024/03/24 12:06:38;;;;;;;;;;;;;;;15.94;47.84;99595.59;5036415;28;1901;-55
2024/03/24 12:09:04;;;;;;;;;;;;;;;15.63;47.98;99599.16;5036414;28;1230;-56
2024/03/24 12:11:29;;;;;;;;;;;;;;;15.39;47.20;99584.41;5036280;28;1079;-59
2024/03/24 12:13:56;;;;;;;;;;;;;;;15.23;46.76;99588.38;5036427;28;1160;-57
2024/03/24 12:16:21;;;;;;;;;;;;;;;15.14;46.57;99573.28;5036776;28;1075;-57
2024/03/24 12:18:47;;;;;;;;;;;;;;;15.00;46.34;99575.28;5036488;28;1091;-56
2024/03/24 12:21:13;;;;;;;;;;;;;;;14.89;46.13;99568.28;5018869;28;1102;-55
2024/03/24 12:23:38;;;;;;;;;;;;;;;16.16;47.45;99570.69;5018331;28;1126;-56
2024/03/24 12:26:04;;;;;;;;;;;;;;;15.82;47.57;99568.34;5035902;28;1905;-56
2024/03/24 12:28:29;;;;;;;;;;;;;;;15.30;48.01;99565.69;5018688;28;1064;-55
2024/03/24 12:30:55;;;;;;;;;;;;;;;15.21;47.42;99560.34;5035638;28;1238;-57
2024/03/24 12:33:21;;;;;;;;;;;;;;;15.00;46.86;99556.75;5036006;28;1012;-56
2024/03/24 12:35:47;;;;;;;;;;;;;;;14.98;46.15;99545.44;5036152;28;1139;-56
2024/03/24 12:38:13;;;;;;;;;;;;;;;14.93;46.31;99550.31;5037678;28;1138;-59
2024/03/24 12:40:38;;;;;;;;;;;;;;;14.85;45.71;99550.13;5039807;28;917;-59
2024/03/24 12:43:11;;;;;;;;;;;;;;;16.12;47.01;99548.88;5040370;28;1139;-52
2024/03/24 12:45:36;;;;;;;;;;;;;;;15.51;48.07;99540.94;5040171;28;1914;-57
2024/03/24 12:48:08;;;;;;;;;;;;;;;16.44;47.53;99549.59;5040474;28;1103;-52
2024/03/24 12:50:34;;;;;;;;;;;;;;;17.06;46.34;99544.84;5040074;28;1102;-56